createdAt,value
2017-04-02T00:00:01.924Z,12.22
2017-04-02T00:00:06.359Z,12.21
2017-04-02T00:00:10.548Z,12.22
2017-04-02T00:00:14.857Z,12.21
2017-04-02T00:00:19.291Z,12.21
2017-04-02T00:00:23.636Z,12.22
2017-04-02T00:00:27.943Z,12.21
2017-04-02T00:00:32.369Z,12.2
2017-04-02T00:00:36.799Z,12.21
2017-04-02T00:00:41.271Z,12.21
2017-04-02T00:00:45.702Z,12.2
2017-04-02T00:00:50.129Z,12.2
2017-04-02T00:00:54.557Z,12.2
2017-04-02T00:00:59.023Z,12.2
2017-04-02T00:01:03.449Z,12.2
2017-04-02T00:01:07.870Z,12.2
2017-04-02T00:01:12.300Z,12.19
2017-04-02T00:01:16.610Z,12.19
2017-04-02T00:01:21.034Z,12.18
2017-04-02T00:01:25.460Z,12.19
2017-04-02T00:01:29.769Z,12.18
2017-04-02T00:01:34.199Z,12.19
2017-04-02T00:01:38.621Z,12.18
2017-04-02T00:01:43.052Z,12.18
2017-04-02T00:01:47.364Z,12.18
2017-04-02T00:01:51.789Z,12.18
2017-04-02T00:01:56.092Z,12.18
2017-04-02T00:02:00.521Z,12.17
2017-04-02T00:02:05.201Z,12.17
2017-04-02T00:02:09.626Z,12.16
2017-04-02T00:02:14.054Z,12.17
2017-04-02T00:02:18.366Z,12.17
2017-04-02T00:02:22.787Z,12.16
2017-04-02T00:02:27.093Z,12.15
2017-04-02T00:02:31.522Z,12.16
2017-04-02T00:02:35.946Z,12.16
2017-04-02T00:02:40.367Z,12.15
2017-04-02T00:02:44.675Z,12.15
2017-04-02T00:02:49.102Z,12.15
2017-04-02T00:02:53.414Z,12.15
2017-04-02T00:02:57.721Z,12.15
2017-04-02T00:03:02.156Z,12.14
2017-04-02T00:03:06.472Z,12.13
2017-04-02T00:03:10.893Z,12.13
2017-04-02T00:03:15.321Z,12.13
2017-04-02T00:03:19.748Z,12.12
2017-04-02T00:03:24.065Z,12.12
2017-04-02T00:03:28.490Z,12.13
2017-04-02T00:03:32.926Z,12.13
2017-04-02T00:03:37.348Z,12.13
2017-04-02T00:03:41.774Z,12.12
2017-04-02T00:03:46.079Z,12.12
2017-04-02T00:03:50.393Z,12.11
2017-04-02T00:03:54.701Z,12.12
2017-04-02T00:03:59.138Z,12.11
2017-04-02T00:04:03.701Z,12.11
2017-04-02T00:04:08.122Z,12.11
2017-04-02T00:04:12.550Z,12.1
2017-04-02T00:04:16.974Z,12.11
2017-04-02T00:04:21.405Z,12.1
2017-04-02T00:04:25.709Z,12.1
2017-04-02T00:04:30.133Z,12.1
2017-04-02T00:04:34.557Z,12.1
2017-04-02T00:04:39.030Z,12.1
2017-04-02T00:04:43.452Z,12.1
2017-04-02T00:04:47.881Z,12.1
2017-04-02T00:04:52.351Z,12.09
2017-04-02T00:04:56.423Z,12.09
2017-04-02T00:05:00.853Z,12.09
2017-04-02T00:05:05.285Z,12.08
2017-04-02T00:05:09.640Z,12.09
2017-04-02T00:05:14.072Z,12.08
2017-04-02T00:05:18.383Z,12.09
2017-04-02T00:05:22.577Z,12.08
2017-04-02T00:05:27.025Z,12.07
2017-04-02T00:05:31.461Z,12.08
2017-04-02T00:05:35.663Z,12.07
2017-04-02T00:05:40.094Z,12.07
2017-04-02T00:05:44.293Z,12.07
2017-04-02T00:05:48.725Z,12.07
2017-04-02T00:05:53.038Z,12.07
2017-04-02T00:05:57.461Z,12.07
2017-04-02T00:06:01.898Z,12.06
2017-04-02T00:06:06.219Z,12.06
2017-04-02T00:06:10.648Z,12.06
2017-04-02T00:06:15.073Z,12.05
2017-04-02T00:06:19.315Z,12.06
2017-04-02T00:06:23.391Z,12.05
2017-04-02T00:06:27.606Z,12.05
2017-04-02T00:06:32.038Z,12.04
2017-04-02T00:06:36.231Z,12.05
2017-04-02T00:06:40.552Z,12.05
2017-04-02T00:06:44.999Z,12.04
2017-04-02T00:06:49.465Z,12.05
2017-04-02T00:06:53.547Z,12.04
2017-04-02T00:06:57.622Z,12.03
2017-04-02T00:07:01.819Z,12.03
2017-04-02T00:07:06.266Z,12.03
2017-04-02T00:07:10.462Z,12.03
2017-04-02T00:07:14.892Z,12.02
2017-04-02T00:07:19.336Z,12.03
2017-04-02T00:07:23.654Z,12.02
2017-04-02T00:07:28.082Z,12.02
2017-04-02T00:07:32.511Z,12.02
2017-04-02T00:07:36.847Z,12.01
2017-04-02T00:07:41.173Z,12.01
2017-04-02T00:07:45.612Z,12.01
2017-04-02T00:07:49.932Z,12
2017-04-02T00:07:54.128Z,12
2017-04-02T00:07:58.574Z,12
2017-04-02T00:08:03.304Z,12
2017-04-02T00:08:07.626Z,12
2017-04-02T00:08:11.836Z,11.99
2017-04-02T00:08:16.267Z,11.99
2017-04-02T00:08:20.466Z,11.99
2017-04-02T00:08:24.825Z,11.98
2017-04-02T00:08:29.146Z,11.98
2017-04-02T00:08:33.569Z,11.97
2017-04-02T00:08:38.001Z,11.98
2017-04-02T00:08:42.434Z,11.97
2017-04-02T00:08:46.862Z,11.96
2017-04-02T00:08:51.292Z,11.96
2017-04-02T00:08:55.602Z,11.96
2017-04-02T00:08:59.918Z,11.96
2017-04-02T00:09:04.126Z,11.95
2017-04-02T00:09:08.557Z,11.95
2017-04-02T00:09:12.981Z,11.95
2017-04-02T00:09:17.187Z,11.94
2017-04-02T00:09:21.510Z,11.94
2017-04-02T00:09:25.703Z,11.94
2017-04-02T00:09:30.145Z,11.93
2017-04-02T00:09:34.335Z,11.92
2017-04-02T00:09:38.643Z,11.93
2017-04-02T00:09:42.841Z,11.92
2017-04-02T00:09:47.118Z,11.91
2017-04-02T00:09:51.440Z,11.92
2017-04-02T00:09:55.760Z,11.92
2017-04-02T00:10:00.082Z,11.91
2017-04-02T00:10:04.502Z,11.9
2017-04-02T00:10:08.695Z,11.89
2017-04-02T00:10:13.006Z,11.9
2017-04-02T00:10:17.091Z,11.89
2017-04-02T00:10:21.523Z,11.89
2017-04-02T00:10:25.853Z,11.89
2017-04-02T00:10:30.278Z,11.89
2017-04-02T00:10:34.707Z,11.88
2017-04-02T00:10:39.071Z,11.88
2017-04-02T00:10:43.500Z,11.87
2017-04-02T00:10:47.821Z,11.87
2017-04-02T00:10:52.267Z,11.87
2017-04-02T00:10:56.692Z,11.87
2017-04-02T00:11:01.119Z,11.86
2017-04-02T00:11:05.731Z,11.86
2017-04-02T00:11:10.047Z,11.86
2017-04-02T00:11:14.236Z,11.85
2017-04-02T00:11:18.664Z,11.85
2017-04-02T00:11:23.088Z,11.83
2017-04-02T00:11:27.285Z,11.84
2017-04-02T00:11:31.590Z,11.83
2017-04-02T00:11:35.898Z,11.83
2017-04-02T00:11:40.337Z,11.83
2017-04-02T00:11:44.685Z,11.81
2017-04-02T00:11:49.108Z,11.82
2017-04-02T00:11:53.547Z,11.81
2017-04-02T00:11:57.901Z,11.81
2017-04-02T00:12:02.474Z,11.81
2017-04-02T00:12:06.789Z,11.81
2017-04-02T00:12:11.094Z,11.8
2017-04-02T00:12:15.515Z,11.8
2017-04-02T00:12:19.937Z,11.79
2017-04-02T00:12:24.414Z,11.79
2017-04-02T00:12:28.845Z,11.79
2017-04-02T00:12:33.270Z,11.78
2017-04-02T00:12:37.465Z,11.78
2017-04-02T00:12:41.901Z,11.77
2017-04-02T00:12:46.325Z,11.77
2017-04-02T00:12:50.631Z,11.76
2017-04-02T00:12:54.942Z,11.76
2017-04-02T00:12:59.368Z,11.76
2017-04-02T00:13:04.148Z,11.76
2017-04-02T00:13:08.453Z,11.76
2017-04-02T00:13:12.878Z,11.75
2017-04-02T00:13:17.303Z,11.74
2017-04-02T00:13:21.727Z,11.74
2017-04-02T00:13:26.150Z,11.74
2017-04-02T00:13:30.577Z,11.74
2017-04-02T00:13:34.888Z,11.74
2017-04-02T00:13:39.309Z,11.74
2017-04-02T00:13:43.733Z,11.73
2017-04-02T00:13:47.810Z,11.73
2017-04-02T00:13:51.996Z,11.72
2017-04-02T00:13:56.189Z,11.72
2017-04-02T00:14:00.615Z,11.71
2017-04-02T00:14:05.339Z,11.71
2017-04-02T00:14:09.761Z,11.71
2017-04-02T00:14:14.189Z,11.69
2017-04-02T00:14:18.531Z,11.69
2017-04-02T00:14:22.835Z,11.7
2017-04-02T00:14:27.279Z,11.69
2017-04-02T00:14:31.704Z,11.69
2017-04-02T00:14:36.158Z,11.69
2017-04-02T00:14:40.463Z,11.68
2017-04-02T00:14:44.886Z,11.68
2017-04-02T00:14:49.327Z,11.68
2017-04-02T00:14:53.749Z,11.67
2017-04-02T00:14:58.179Z,11.66
2017-04-02T00:15:02.659Z,11.66
2017-04-02T00:15:07.084Z,11.66
2017-04-02T00:15:11.513Z,11.66
2017-04-02T00:15:15.940Z,11.66
2017-04-02T00:15:20.368Z,11.66
2017-04-02T00:15:24.806Z,11.65
2017-04-02T00:15:29.230Z,11.64
2017-04-02T00:15:33.654Z,11.64
2017-04-02T00:15:37.967Z,11.64
2017-04-02T00:15:42.396Z,11.63
2017-04-02T00:15:46.826Z,11.63
2017-04-02T00:15:51.026Z,11.63
2017-04-02T00:15:55.455Z,11.62
2017-04-02T00:15:59.882Z,11.63
2017-04-02T00:16:04.556Z,11.62
2017-04-02T00:16:08.986Z,11.62
2017-04-02T00:16:13.444Z,11.61
2017-04-02T00:16:17.748Z,11.61
2017-04-02T00:16:22.179Z,11.61
2017-04-02T00:16:26.488Z,11.61
2017-04-02T00:16:30.907Z,11.6
2017-04-02T00:16:35.220Z,11.6
2017-04-02T00:16:39.405Z,11.6
2017-04-02T00:16:43.729Z,11.58
2017-04-02T00:16:48.151Z,11.59
2017-04-02T00:16:52.467Z,11.59
2017-04-02T00:16:56.789Z,11.58
2017-04-02T00:17:01.100Z,11.58
2017-04-02T00:17:05.405Z,11.57
2017-04-02T00:17:09.719Z,11.58
2017-04-02T00:17:14.166Z,11.57
2017-04-02T00:17:18.593Z,11.57
2017-04-02T00:17:23.012Z,11.57
2017-04-02T00:17:27.199Z,11.56
2017-04-02T00:17:31.628Z,11.56
2017-04-02T00:17:36.060Z,11.56
2017-04-02T00:17:40.480Z,11.55
2017-04-02T00:17:44.899Z,11.55
2017-04-02T00:17:49.328Z,11.55
2017-04-02T00:17:53.756Z,11.54
2017-04-02T00:17:58.068Z,11.53
2017-04-02T00:18:02.495Z,11.54
2017-04-02T00:18:06.970Z,11.53
2017-04-02T00:18:11.280Z,11.53
2017-04-02T00:18:15.580Z,11.54
2017-04-02T00:18:20.016Z,11.53
2017-04-02T00:18:24.734Z,11.52
2017-04-02T00:18:29.157Z,11.53
2017-04-02T00:18:33.579Z,11.51
2017-04-02T00:18:38.007Z,11.51
2017-04-02T00:18:42.431Z,11.51
2017-04-02T00:18:46.852Z,11.51
2017-04-02T00:18:51.275Z,11.5
2017-04-02T00:18:55.510Z,11.51
2017-04-02T00:18:59.935Z,11.5
2017-04-02T00:19:04.494Z,11.5
2017-04-02T00:19:08.921Z,11.49
2017-04-02T00:19:13.348Z,11.49
2017-04-02T00:19:17.772Z,11.48
2017-04-02T00:19:22.197Z,11.48
2017-04-02T00:19:26.615Z,11.49
2017-04-02T00:19:31.044Z,11.48
2017-04-02T00:19:35.350Z,11.48
2017-04-02T00:19:39.776Z,11.47
2017-04-02T00:19:44.207Z,11.47
2017-04-02T00:19:48.643Z,11.47
2017-04-02T00:19:53.070Z,11.47
2017-04-02T00:19:57.494Z,11.46
2017-04-02T00:20:01.917Z,11.46
2017-04-02T00:20:06.348Z,11.45
2017-04-02T00:20:10.664Z,11.45
2017-04-02T00:20:14.973Z,11.45
2017-04-02T00:20:19.393Z,11.44
2017-04-02T00:20:23.701Z,11.45
2017-04-02T00:20:28.133Z,11.44
2017-04-02T00:20:32.560Z,11.45
2017-04-02T00:20:36.875Z,11.44
2017-04-02T00:20:41.183Z,11.43
2017-04-02T00:20:45.609Z,11.43
2017-04-02T00:20:50.035Z,11.43
2017-04-02T00:20:54.457Z,11.43
2017-04-02T00:20:58.761Z,11.43
2017-04-02T00:21:03.186Z,11.42
2017-04-02T00:21:07.651Z,11.42
2017-04-02T00:21:11.956Z,11.42
2017-04-02T00:21:16.389Z,11.42
2017-04-02T00:21:20.815Z,11.41
2017-04-02T00:21:25.243Z,11.41
2017-04-02T00:21:29.430Z,11.41
2017-04-02T00:21:33.854Z,11.42
2017-04-02T00:21:38.294Z,11.41
2017-04-02T00:21:42.730Z,11.4
2017-04-02T00:21:47.156Z,11.41
2017-04-02T00:21:51.578Z,11.41
2017-04-02T00:21:55.655Z,11.39
2017-04-02T00:22:00.086Z,11.4
2017-04-02T00:22:04.399Z,11.39
2017-04-02T00:22:08.708Z,11.38
2017-04-02T00:22:13.136Z,11.38
2017-04-02T00:22:17.448Z,11.39
2017-04-02T00:22:21.759Z,11.38
2017-04-02T00:22:26.182Z,11.38
2017-04-02T00:22:30.608Z,11.38
2017-04-02T00:22:35.086Z,11.38
2017-04-02T00:22:39.395Z,11.38
2017-04-02T00:22:43.585Z,11.37
2017-04-02T00:22:48.011Z,11.37
2017-04-02T00:22:52.434Z,11.38
2017-04-02T00:22:56.860Z,11.37
2017-04-02T00:23:01.292Z,11.37
2017-04-02T00:23:05.916Z,11.37
2017-04-02T00:23:10.337Z,11.36
2017-04-02T00:23:14.764Z,11.36
2017-04-02T00:23:19.195Z,11.36
2017-04-02T00:23:23.617Z,11.35
2017-04-02T00:23:28.045Z,11.36
2017-04-02T00:23:32.357Z,11.35
2017-04-02T00:23:36.665Z,11.34
2017-04-02T00:23:41.087Z,11.36
2017-04-02T00:23:45.509Z,11.35
2017-04-02T00:23:49.706Z,11.35
2017-04-02T00:23:54.011Z,11.34
2017-04-02T00:23:58.325Z,11.35
2017-04-02T00:24:02.659Z,11.34
2017-04-02T00:24:06.965Z,11.34
2017-04-02T00:24:11.399Z,11.33
2017-04-02T00:24:15.868Z,11.34
2017-04-02T00:24:20.171Z,11.34
2017-04-02T00:24:24.473Z,11.33
2017-04-02T00:24:28.895Z,11.33
2017-04-02T00:24:33.255Z,11.33
2017-04-02T00:24:37.566Z,11.33
2017-04-02T00:24:41.987Z,11.33
2017-04-02T00:24:46.418Z,11.32
2017-04-02T00:24:50.857Z,11.32
2017-04-02T00:24:55.050Z,11.32
2017-04-02T00:24:59.473Z,11.31
2017-04-02T00:25:03.908Z,11.32
2017-04-02T00:25:08.219Z,11.32
2017-04-02T00:25:12.641Z,11.31
2017-04-02T00:25:17.066Z,11.31
2017-04-02T00:25:21.145Z,11.31
2017-04-02T00:25:25.583Z,11.31
2017-04-02T00:25:30.025Z,11.31
2017-04-02T00:25:34.445Z,11.31
2017-04-02T00:25:38.758Z,11.31
2017-04-02T00:25:43.064Z,11.31
2017-04-02T00:25:47.493Z,11.31
2017-04-02T00:25:51.804Z,11.3
2017-04-02T00:25:56.115Z,11.3
2017-04-02T00:26:00.429Z,11.3
2017-04-02T00:26:04.859Z,11.3
2017-04-02T00:26:09.284Z,11.3
2017-04-02T00:26:13.708Z,11.3
2017-04-02T00:26:18.137Z,11.29
2017-04-02T00:26:22.495Z,11.29
2017-04-02T00:26:26.809Z,11.3
2017-04-02T00:26:31.116Z,11.3
2017-04-02T00:26:35.541Z,11.29
2017-04-02T00:26:39.971Z,11.29
2017-04-02T00:26:44.394Z,11.28
2017-04-02T00:26:48.819Z,11.28
2017-04-02T00:26:53.292Z,11.28
2017-04-02T00:26:57.723Z,11.28
2017-04-02T00:27:02.305Z,11.28
2017-04-02T00:27:06.734Z,11.27
2017-04-02T00:27:11.187Z,11.27
2017-04-02T00:27:15.611Z,11.28
2017-04-02T00:27:20.039Z,11.27
2017-04-02T00:27:24.464Z,11.27
2017-04-02T00:27:28.891Z,11.28
2017-04-02T00:27:33.313Z,11.27
2017-04-02T00:27:37.735Z,11.27
2017-04-02T00:27:42.157Z,11.27
2017-04-02T00:27:46.582Z,11.26
2017-04-02T00:27:51.001Z,11.26
2017-04-02T00:27:55.310Z,11.26
2017-04-02T00:27:59.753Z,11.26
2017-04-02T00:28:04.107Z,11.26
2017-04-02T00:28:08.534Z,11.27
2017-04-02T00:28:13.003Z,11.26
2017-04-02T00:28:17.442Z,11.26
2017-04-02T00:28:21.750Z,11.26
2017-04-02T00:28:26.375Z,11.26
2017-04-02T00:28:30.682Z,11.25
2017-04-02T00:28:35.106Z,11.26
2017-04-02T00:28:39.528Z,11.25
2017-04-02T00:28:43.840Z,11.25
2017-04-02T00:28:48.146Z,11.25
2017-04-02T00:28:52.457Z,11.25
2017-04-02T00:28:56.881Z,11.24
2017-04-02T00:29:01.200Z,11.25
2017-04-02T00:29:05.629Z,11.25
2017-04-02T00:29:10.056Z,11.25
2017-04-02T00:29:14.483Z,11.24
2017-04-02T00:29:18.906Z,11.24
2017-04-02T00:29:23.326Z,11.25
2017-04-02T00:29:27.637Z,11.25
2017-04-02T00:29:32.063Z,11.24
2017-04-02T00:29:36.375Z,11.24
2017-04-02T00:29:40.681Z,11.24
2017-04-02T00:29:45.107Z,11.23
2017-04-02T00:29:49.537Z,11.23
2017-04-02T00:29:53.957Z,11.23
2017-04-02T00:29:58.263Z,11.23
2017-04-02T00:30:02.581Z,11.23
2017-04-02T00:30:06.772Z,11.23
2017-04-02T00:30:11.085Z,11.23
2017-04-02T00:30:15.397Z,11.24
2017-04-02T00:30:19.827Z,11.23
2017-04-02T00:30:24.143Z,11.23
2017-04-02T00:30:28.458Z,11.23
2017-04-02T00:30:32.885Z,11.23
2017-04-02T00:30:37.198Z,11.22
2017-04-02T00:30:41.621Z,11.22
2017-04-02T00:30:46.058Z,11.22
2017-04-02T00:30:50.371Z,11.22
2017-04-02T00:30:54.799Z,11.22
2017-04-02T00:30:59.111Z,11.22
2017-04-02T00:31:03.424Z,11.22
2017-04-02T00:31:07.856Z,11.22
2017-04-02T00:31:12.290Z,11.22
2017-04-02T00:31:16.716Z,11.21
2017-04-02T00:31:21.144Z,11.21
2017-04-02T00:31:25.587Z,11.21
2017-04-02T00:31:30.016Z,11.21
2017-04-02T00:31:34.331Z,11.21
2017-04-02T00:31:38.757Z,11.21
2017-04-02T00:31:43.067Z,11.21
2017-04-02T00:31:47.497Z,11.21
2017-04-02T00:31:51.605Z,11.21
2017-04-02T00:31:55.915Z,11.21
2017-04-02T00:32:00.345Z,11.2
2017-04-02T00:32:04.875Z,11.2
2017-04-02T00:32:08.957Z,11.2
2017-04-02T00:32:13.269Z,11.2
2017-04-02T00:32:17.689Z,11.2
2017-04-02T00:32:22.118Z,11.21
2017-04-02T00:32:26.546Z,11.2
2017-04-02T00:32:30.857Z,11.21
2017-04-02T00:32:35.281Z,11.21
2017-04-02T00:32:39.701Z,11.21
2017-04-02T00:32:44.123Z,11.2
2017-04-02T00:32:48.438Z,11.21
2017-04-02T00:32:52.742Z,11.21
2017-04-02T00:32:57.165Z,11.2
2017-04-02T00:33:01.602Z,11.2
2017-04-02T00:33:05.675Z,11.2
2017-04-02T00:33:10.100Z,11.19
2017-04-02T00:33:14.529Z,11.19
2017-04-02T00:33:18.967Z,11.2
2017-04-02T00:33:23.388Z,11.19
2017-04-02T00:33:27.711Z,11.19
2017-04-02T00:33:32.139Z,11.18
2017-04-02T00:33:36.563Z,11.2
2017-04-02T00:33:40.987Z,11.18
2017-04-02T00:33:45.297Z,11.19
2017-04-02T00:33:49.721Z,11.19
2017-04-02T00:33:54.024Z,11.19
2017-04-02T00:33:58.450Z,11.18
2017-04-02T00:34:02.758Z,11.18
2017-04-02T00:34:07.062Z,11.18
2017-04-02T00:34:11.489Z,11.2
2017-04-02T00:34:15.913Z,11.18
2017-04-02T00:34:20.337Z,11.18
2017-04-02T00:34:24.815Z,11.19
2017-04-02T00:34:29.247Z,11.18
2017-04-02T00:34:33.673Z,11.19
2017-04-02T00:34:37.980Z,11.18
2017-04-02T00:34:42.292Z,11.18
2017-04-02T00:34:46.752Z,11.18
2017-04-02T00:34:51.061Z,11.19
2017-04-02T00:34:55.363Z,11.18
2017-04-02T00:34:59.800Z,11.19
2017-04-02T00:35:03.852Z,11.19
2017-04-02T00:35:08.283Z,11.18
2017-04-02T00:35:12.710Z,11.18
2017-04-02T00:35:17.137Z,11.19
2017-04-02T00:35:21.438Z,11.18
2017-04-02T00:35:25.868Z,11.18
2017-04-02T00:35:30.294Z,11.18
2017-04-02T00:35:34.722Z,11.18
2017-04-02T00:35:38.907Z,11.18
2017-04-02T00:35:43.338Z,11.18
2017-04-02T00:35:47.808Z,11.18
2017-04-02T00:35:52.002Z,11.17
2017-04-02T00:35:56.310Z,11.18
2017-04-02T00:36:00.618Z,11.18
2017-04-02T00:36:05.351Z,11.18
2017-04-02T00:36:09.542Z,11.18
2017-04-02T00:36:13.966Z,11.18
2017-04-02T00:36:18.397Z,11.17
2017-04-02T00:36:22.702Z,11.17
2017-04-02T00:36:27.131Z,11.17
2017-04-02T00:36:31.448Z,11.18
2017-04-02T00:36:35.757Z,11.17
2017-04-02T00:36:40.179Z,11.17
2017-04-02T00:36:44.602Z,11.17
2017-04-02T00:36:48.919Z,11.17
2017-04-02T00:36:53.348Z,11.16
2017-04-02T00:36:57.538Z,11.16
2017-04-02T00:37:01.846Z,11.17
2017-04-02T00:37:06.215Z,11.17
2017-04-02T00:37:10.644Z,11.16
2017-04-02T00:37:15.067Z,11.16
2017-04-02T00:37:19.510Z,11.16
2017-04-02T00:37:23.817Z,11.16
2017-04-02T00:37:28.245Z,11.16
2017-04-02T00:37:32.548Z,11.16
2017-04-02T00:37:36.971Z,11.16
2017-04-02T00:37:41.305Z,11.15
2017-04-02T00:37:45.493Z,11.15
2017-04-02T00:37:49.799Z,11.14
2017-04-02T00:37:54.228Z,11.14
2017-04-02T00:37:58.645Z,11.15
2017-04-02T00:38:03.069Z,11.15
2017-04-02T00:38:07.489Z,11.15
2017-04-02T00:38:11.922Z,11.14
2017-04-02T00:38:16.386Z,11.15
2017-04-02T00:38:20.808Z,11.14
2017-04-02T00:38:25.236Z,11.13
2017-04-02T00:38:29.582Z,11.14
2017-04-02T00:38:34.003Z,11.14
2017-04-02T00:38:38.423Z,11.14
2017-04-02T00:38:42.733Z,11.13
2017-04-02T00:38:46.806Z,11.12
2017-04-02T00:38:51.119Z,11.13
2017-04-02T00:38:55.306Z,11.13
2017-04-02T00:38:59.745Z,11.13
2017-04-02T00:39:04.360Z,11.12
2017-04-02T00:39:08.785Z,11.12
2017-04-02T00:39:13.212Z,11.13
2017-04-02T00:39:17.641Z,11.12
2017-04-02T00:39:22.062Z,11.13
2017-04-02T00:39:26.481Z,11.13
2017-04-02T00:39:30.903Z,11.12
2017-04-02T00:39:35.252Z,11.12
2017-04-02T00:39:39.561Z,11.12
2017-04-02T00:39:43.748Z,11.12
2017-04-02T00:39:48.056Z,11.12
2017-04-02T00:39:52.481Z,11.12
2017-04-02T00:39:56.909Z,11.12
2017-04-02T00:40:01.333Z,11.11
2017-04-02T00:40:05.642Z,11.12
2017-04-02T00:40:09.948Z,11.12
2017-04-02T00:40:14.263Z,11.11
2017-04-02T00:40:18.568Z,11.11
2017-04-02T00:40:22.995Z,11.11
2017-04-02T00:40:27.420Z,11.11
2017-04-02T00:40:31.879Z,11.11
2017-04-02T00:40:36.187Z,11.11
2017-04-02T00:40:40.612Z,11.11
2017-04-02T00:40:44.916Z,11.11
2017-04-02T00:40:49.228Z,11.1
2017-04-02T00:40:53.533Z,11.1
2017-04-02T00:40:57.956Z,11.1
2017-04-02T00:41:02.395Z,11.1
2017-04-02T00:41:06.871Z,11.1
2017-04-02T00:41:11.296Z,11.11
2017-04-02T00:41:15.730Z,11.1
2017-04-02T00:41:20.186Z,11.1
2017-04-02T00:41:24.613Z,11.1
2017-04-02T00:41:28.920Z,11.1
2017-04-02T00:41:33.351Z,11.09
2017-04-02T00:41:37.665Z,11.09
2017-04-02T00:41:41.973Z,11.1
2017-04-02T00:41:46.281Z,11.1
2017-04-02T00:41:50.708Z,11.1
2017-04-02T00:41:55.144Z,11.1
2017-04-02T00:41:59.486Z,11.1
2017-04-02T00:42:03.844Z,11.1
2017-04-02T00:42:08.277Z,11.1
2017-04-02T00:42:12.746Z,11.1
2017-04-02T00:42:17.171Z,11.09
2017-04-02T00:42:21.484Z,11.09
2017-04-02T00:42:25.912Z,11.09
2017-04-02T00:42:30.339Z,11.09
2017-04-02T00:42:34.765Z,11.09
2017-04-02T00:42:39.192Z,11.09
2017-04-02T00:42:43.388Z,11.09
2017-04-02T00:42:47.811Z,11.09
2017-04-02T00:42:52.122Z,11.08
2017-04-02T00:42:56.556Z,11.08
2017-04-02T00:43:00.874Z,11.09
2017-04-02T00:43:05.297Z,11.08
2017-04-02T00:43:09.720Z,11.09
2017-04-02T00:43:14.150Z,11.07
2017-04-02T00:43:18.575Z,11.08
2017-04-02T00:43:22.996Z,11.08
2017-04-02T00:43:27.420Z,11.07
2017-04-02T00:43:31.699Z,11.07
2017-04-02T00:43:36.125Z,11.08
2017-04-02T00:43:40.548Z,11.07
2017-04-02T00:43:44.850Z,11.07
2017-04-02T00:43:49.274Z,11.06
2017-04-02T00:43:53.586Z,11.07
2017-04-02T00:43:58.008Z,11.06
2017-04-02T00:44:02.396Z,11.08
2017-04-02T00:44:06.821Z,11.06
2017-04-02T00:44:11.173Z,11.07
2017-04-02T00:44:15.481Z,11.07
2017-04-02T00:44:19.912Z,11.06
2017-04-02T00:44:24.368Z,11.06
2017-04-02T00:44:28.667Z,11.07
2017-04-02T00:44:33.091Z,11.06
2017-04-02T00:44:37.402Z,11.06
2017-04-02T00:44:41.741Z,11.05
2017-04-02T00:44:46.171Z,11.05
2017-04-02T00:44:50.476Z,11.06
2017-04-02T00:44:54.787Z,11.05
2017-04-02T00:44:59.103Z,11.05
2017-04-02T00:45:03.413Z,11.05
2017-04-02T00:45:07.733Z,11.05
2017-04-02T00:45:12.168Z,11.05
2017-04-02T00:45:16.590Z,11.05
2017-04-02T00:45:21.021Z,11.05
2017-04-02T00:45:25.441Z,11.04
2017-04-02T00:45:29.632Z,11.04
2017-04-02T00:45:34.065Z,11.05
2017-04-02T00:45:38.260Z,11.04
2017-04-02T00:45:42.446Z,11.04
2017-04-02T00:45:46.873Z,11.03
2017-04-02T00:45:51.178Z,11.04
2017-04-02T00:45:55.603Z,11.04
2017-04-02T00:45:59.909Z,11.04
2017-04-02T00:46:04.266Z,11.04
2017-04-02T00:46:08.706Z,11.04
2017-04-02T00:46:13.177Z,11.03
2017-04-02T00:46:17.604Z,11.03
2017-04-02T00:46:22.045Z,11.03
2017-04-02T00:46:26.251Z,11.03
2017-04-02T00:46:30.692Z,11.03
2017-04-02T00:46:35.117Z,11.03
2017-04-02T00:46:39.542Z,11.03
2017-04-02T00:46:43.849Z,11.02
2017-04-02T00:46:48.324Z,11.03
2017-04-02T00:46:52.510Z,11.02
2017-04-02T00:46:56.935Z,11.01
2017-04-02T00:47:01.357Z,11.02
2017-04-02T00:47:05.771Z,11.02
2017-04-02T00:47:10.199Z,11.01
2017-04-02T00:47:14.503Z,11.02
2017-04-02T00:47:18.925Z,11.01
2017-04-02T00:47:23.357Z,11.02
2017-04-02T00:47:27.796Z,11.02
2017-04-02T00:47:32.224Z,11.02
2017-04-02T00:47:36.646Z,11.02
2017-04-02T00:47:40.960Z,11.02
2017-04-02T00:47:45.384Z,11.01
2017-04-02T00:47:49.806Z,11.01
2017-04-02T00:47:54.245Z,11.01
2017-04-02T00:47:58.560Z,11.01
2017-04-02T00:48:02.866Z,11.01
2017-04-02T00:48:07.059Z,11.01
2017-04-02T00:48:11.521Z,11
2017-04-02T00:48:15.830Z,11
2017-04-02T00:48:20.251Z,11
2017-04-02T00:48:24.678Z,11
2017-04-02T00:48:28.984Z,11
2017-04-02T00:48:33.540Z,11
2017-04-02T00:48:37.959Z,11.01
2017-04-02T00:48:42.388Z,11.01
2017-04-02T00:48:46.736Z,10.99
2017-04-02T00:48:51.161Z,11
2017-04-02T00:48:55.466Z,10.99
2017-04-02T00:48:59.892Z,11
2017-04-02T00:49:04.115Z,10.99
2017-04-02T00:49:08.541Z,10.99
2017-04-02T00:49:12.962Z,10.99
2017-04-02T00:49:17.394Z,10.99
2017-04-02T00:49:21.816Z,10.99
2017-04-02T00:49:26.252Z,10.99
2017-04-02T00:49:30.721Z,10.99
2017-04-02T00:49:34.912Z,10.97
2017-04-02T00:49:39.100Z,10.98
2017-04-02T00:49:43.525Z,10.99
2017-04-02T00:49:47.957Z,10.98
2017-04-02T00:49:52.067Z,10.98
2017-04-02T00:49:56.253Z,10.98
2017-04-02T00:50:00.571Z,10.98
2017-04-02T00:50:05.099Z,10.98
2017-04-02T00:50:09.405Z,10.99
2017-04-02T00:50:13.719Z,10.97
2017-04-02T00:50:18.034Z,10.98
2017-04-02T00:50:22.467Z,10.98
2017-04-02T00:50:26.774Z,10.97
2017-04-02T00:50:31.206Z,10.97
2017-04-02T00:50:35.513Z,10.97
2017-04-02T00:50:39.823Z,10.97
2017-04-02T00:50:44.248Z,10.97
2017-04-02T00:50:48.556Z,10.97
2017-04-02T00:50:52.987Z,10.97
2017-04-02T00:50:57.409Z,10.97
2017-04-02T00:51:01.729Z,10.96
2017-04-02T00:51:06.161Z,10.96
2017-04-02T00:51:10.588Z,10.96
2017-04-02T00:51:14.897Z,10.97
2017-04-02T00:51:19.334Z,10.96
2017-04-02T00:51:23.649Z,10.96
2017-04-02T00:51:27.722Z,10.96
2017-04-02T00:51:32.157Z,10.97
2017-04-02T00:51:36.587Z,10.96
2017-04-02T00:51:41.011Z,10.96
2017-04-02T00:51:45.437Z,10.96
2017-04-02T00:51:49.864Z,10.95
2017-04-02T00:51:54.335Z,10.96
2017-04-02T00:51:58.644Z,10.95
2017-04-02T00:52:02.946Z,10.94
2017-04-02T00:52:07.134Z,10.95
2017-04-02T00:52:11.446Z,10.95
2017-04-02T00:52:15.749Z,10.94
2017-04-02T00:52:20.053Z,10.95
2017-04-02T00:52:24.490Z,10.94
2017-04-02T00:52:28.920Z,10.94
2017-04-02T00:52:33.345Z,10.95
2017-04-02T00:52:37.765Z,10.95
2017-04-02T00:52:42.200Z,10.94
2017-04-02T00:52:46.521Z,10.94
2017-04-02T00:52:50.946Z,10.93
2017-04-02T00:52:55.262Z,10.94
2017-04-02T00:52:59.613Z,10.94
2017-04-02T00:53:04.242Z,10.94
2017-04-02T00:53:08.671Z,10.94
2017-04-02T00:53:12.976Z,10.93
2017-04-02T00:53:17.286Z,10.93
2017-04-02T00:53:21.709Z,10.93
2017-04-02T00:53:26.010Z,10.93
2017-04-02T00:53:30.316Z,10.93
2017-04-02T00:53:34.744Z,10.93
2017-04-02T00:53:39.164Z,10.93
2017-04-02T00:53:43.594Z,10.92
2017-04-02T00:53:48.022Z,10.93
2017-04-02T00:53:52.438Z,10.93
2017-04-02T00:53:56.626Z,10.92
2017-04-02T00:54:00.981Z,10.93
2017-04-02T00:54:05.405Z,10.92
2017-04-02T00:54:09.718Z,10.92
2017-04-02T00:54:14.136Z,10.92
2017-04-02T00:54:18.448Z,10.92
2017-04-02T00:54:22.868Z,10.91
2017-04-02T00:54:27.179Z,10.92
2017-04-02T00:54:31.611Z,10.91
2017-04-02T00:54:36.044Z,10.91
2017-04-02T00:54:40.360Z,10.91
2017-04-02T00:54:44.664Z,10.91
2017-04-02T00:54:48.968Z,10.91
2017-04-02T00:54:53.389Z,10.91
2017-04-02T00:54:57.588Z,10.9
2017-04-02T00:55:01.900Z,10.91
2017-04-02T00:55:06.210Z,10.9
2017-04-02T00:55:10.645Z,10.89
2017-04-02T00:55:15.072Z,10.9
2017-04-02T00:55:19.503Z,10.9
2017-04-02T00:55:23.817Z,10.89
2017-04-02T00:55:28.250Z,10.89
2017-04-02T00:55:32.556Z,10.88
2017-04-02T00:55:36.979Z,10.88
2017-04-02T00:55:41.183Z,10.87
2017-04-02T00:55:45.490Z,10.87
2017-04-02T00:55:49.795Z,10.89
2017-04-02T00:55:54.101Z,10.87
2017-04-02T00:55:58.295Z,10.88
2017-04-02T00:56:02.752Z,10.88
2017-04-02T00:56:07.058Z,10.88
2017-04-02T00:56:11.246Z,10.86
2017-04-02T00:56:15.682Z,10.87
2017-04-02T00:56:20.123Z,10.87
2017-04-02T00:56:24.548Z,10.86
2017-04-02T00:56:28.969Z,10.86
2017-04-02T00:56:33.394Z,10.87
2017-04-02T00:56:37.827Z,10.86